sensor_id;sensor_type;location;lat;lon;timestamp;temperature;humidity
42187;DHT22;27858;51.414;0.018;2024-03-23T00:51:17;6.30;99.90
42187;DHT22;27858;51.414;0.018;2024-03-23T00:53:43;6.30;99.90
42187;DHT22;27858;51.414;0.018;2024-03-23T00:56:09;6.30;99.90
42187;DHT22;27858;51.414;0.018;2024-03-23T00:58:35;6.30;99.90
42187;DHT22;27858;51.414;0.018;2024-03-23T01:01:00;6.20;99.90
42187;DHT22;27858;51.414;0.018;2024-03-23T01:03:28;6.20;99.90
42187;DHT22;27858;51.414;0.018;2024-03-23T01:05:53;6.20;99.90
42187;DHT22;27858;51.414;0.018;2024-03-23T01:08:19;6.20;99.90
42187;DHT22;27858;51.414;0.018;2024-03-23T01:10:59;6.20;99.90
42187;DHT22;27858;51.414;0.018;2024-03-23T01:13:26;6.20;99.90
42187;DHT22;27858;51.414;0.018;2024-03-23T01:15:52;6.20;99.90
42187;DHT22;27858;51.414;0.018;2024-03-23T01:18:19;6.20;99.90
42187;DHT22;27858;51.414;0.018;2024-03-23T01:20:45;6.20;99.90
42187;DHT22;27858;51.414;0.018;2024-03-23T01:23:11;6.20;99.90
42187;DHT22;27858;51.414;0.018;2024-03-23T01:25:37;6.20;99.90
42187;DHT22;27858;51.414;0.018;2024-03-23T01:28:04;6.20;99.90
42187;DHT22;27858;51.414;0.018;2024-03-23T01:30:30;6.20;99.90
42187;DHT22;27858;51.414;0.018;2024-03-23T01:32:56;6.20;99.90
42187;DHT22;27858;51.414;0.018;2024-03-23T01:35:22;6.10;99.90
42187;DHT22;27858;51.414;0.018;2024-03-23T01:37:48;6.10;99.90
42187;DHT22;27858;51.414;0.018;2024-03-23T01:40:13;6.10;99.90
42187;DHT22;27858;51.414;0.018;2024-03-23T01:42:40;6.10;99.90
42187;DHT22;27858;51.414;0.018;2024-03-23T01:45:09;6.10;99.90
42187;DHT22;27858;51.414;0.018;2024-03-23T01:47:38;6.10;99.90
42187;DHT22;27858;51.414;0.018;2024-03-23T01:50:05;6.00;99.90
42187;DHT22;27858;51.414;0.018;2024-03-23T01:52:31;6.00;99.90
42187;DHT22;27858;51.414;0.018;2024-03-23T01:54:57;5.90;99.90
42187;DHT22;27858;51.414;0.018;2024-03-23T01:57:23;5.90;99.90
42187;DHT22;27858;51.414;0.018;2024-03-23T01:59:49;5.90;99.90
42187;DHT22;27858;51.414;0.018;2024-03-23T02:02:15;5.90;99.90
42187;DHT22;27858;51.414;0.018;2024-03-23T02:04:43;5.90;99.90
42187;DHT22;27858;51.414;0.018;2024-03-23T02:07:09;5.80;99.90
42187;DHT22;27858;51.414;0.018;2024-03-23T02:09:35;5.80;99.90
42187;DHT22;27858;51.414;0.018;2024-03-23T02:12:02;5.80;99.90
42187;DHT22;27858;51.414;0.018;2024-03-23T02:14:28;5.80;99.90
42187;DHT22;27858;51.414;0.018;2024-03-23T02:16:54;5.80;99.90
42187;DHT22;27858;51.414;0.018;2024-03-23T02:19:20;5.80;99.90
42187;DHT22;27858;51.414;0.018;2024-03-23T02:21:46;5.80;99.90
42187;DHT22;27858;51.414;0.018;2024-03-23T02:24:13;5.70;99.90
42187;DHT22;27858;51.414;0.018;2024-03-23T02:26:38;5.80;99.90
42187;DHT22;27858;51.414;0.018;2024-03-23T02:29:04;5.70;99.90
42187;DHT22;27858;51.414;0.018;2024-03-23T02:31:30;5.70;99.90
42187;DHT22;27858;51.414;0.018;2024-03-23T02:33:56;5.70;99.90
42187;DHT22;27858;51.414;0.018;2024-03-23T02:36:23;5.70;99.90
42187;DHT22;27858;51.414;0.018;2024-03-23T02:38:49;5.70;99.90
42187;DHT22;27858;51.414;0.018;2024-03-23T02:41:16;5.70;99.90
42187;DHT22;27858;51.414;0.018;2024-03-23T02:43:51;5.70;99.90
42187;DHT22;27858;51.414;0.018;2024-03-23T02:46:17;5.70;99.90
42187;DHT22;27858;51.414;0.018;2024-03-23T02:48:43;5.60;99.90
42187;DHT22;27858;51.414;0.018;2024-03-23T02:51:09;5.60;99.90
42187;DHT22;27858;51.414;0.018;2024-03-23T02:53:35;5.60;99.90
42187;DHT22;27858;51.414;0.018;2024-03-23T02:56:00;5.60;99.90
42187;DHT22;27858;51.414;0.018;2024-03-23T02:58:26;5.50;99.90
42187;DHT22;27858;51.414;0.018;2024-03-23T03:00:52;5.50;99.90
42187;DHT22;27858;51.414;0.018;2024-03-23T03:03:18;5.50;99.90
42187;DHT22;27858;51.414;0.018;2024-03-23T03:05:44;5.50;99.90
42187;DHT22;27858;51.414;0.018;2024-03-23T03:08:09;5.50;99.90
42187;DHT22;27858;51.414;0.018;2024-03-23T03:10:37;5.50;99.90
42187;DHT22;27858;51.414;0.018;2024-03-23T03:13:02;5.40;99.90
42187;DHT22;27858;51.414;0.018;2024-03-23T03:15:29;5.40;99.90
42187;DHT22;27858;51.414;0.018;2024-03-23T03:17:55;5.40;99.90
42187;DHT22;27858;51.414;0.018;2024-03-23T03:20:20;5.40;99.90
42187;DHT22;27858;51.414;0.018;2024-03-23T03:22:49;5.30;99.90
42187;DHT22;27858;51.414;0.018;2024-03-23T03:25:15;5.40;99.90
42187;DHT22;27858;51.414;0.018;2024-03-23T03:27:41;5.30;99.90
42187;DHT22;27858;51.414;0.018;2024-03-23T03:30:07;5.30;99.90
42187;DHT22;27858;51.414;0.018;2024-03-23T03:32:34;5.30;99.90
42187;DHT22;27858;51.414;0.018;2024-03-23T03:35:00;5.20;99.90
42187;DHT22;27858;51.414;0.018;2024-03-23T03:37:27;5.20;99.90
42187;DHT22;27858;51.414;0.018;2024-03-23T03:39:53;5.20;99.90
42187;DHT22;27858;51.414;0.018;2024-03-23T03:42:19;5.20;99.90
42187;DHT22;27858;51.414;0.018;2024-03-23T03:44:44;5.20;99.90
42187;DHT22;27858;51.414;0.018;2024-03-23T03:47:11;5.20;99.90
42187;DHT22;27858;51.414;0.018;2024-03-23T03:49:37;5.20;99.90
42187;DHT22;27858;51.414;0.018;2024-03-23T03:52:03;5.20;99.90
42187;DHT22;27858;51.414;0.018;2024-03-23T03:54:30;5.10;99.90
42187;DHT22;27858;51.414;0.018;2024-03-23T03:56:55;5.10;99.90
42187;DHT22;27858;51.414;0.018;2024-03-23T03:59:21;5.10;99.90
42187;DHT22;27858;51.414;0.018;2024-03-23T04:01:47;5.10;99.90
42187;DHT22;27858;51.414;0.018;2024-03-23T04:04:13;5.10;99.90
42187;DHT22;27858;51.414;0.018;2024-03-23T04:06:39;5.10;99.90
42187;DHT22;27858;51.414;0.018;2024-03-23T04:09:05;5.10;99.90
42187;DHT22;27858;51.414;0.018;2024-03-23T04:11:32;5.10;99.90
42187;DHT22;27858;51.414;0.018;2024-03-23T04:13:58;5.10;99.90
42187;DHT22;27858;51.414;0.018;2024-03-23T04:16:33;5.10;99.90
42187;DHT22;27858;51.414;0.018;2024-03-23T04:18:59;5.00;99.90
42187;DHT22;27858;51.414;0.018;2024-03-23T04:21:25;5.00;99.90
42187;DHT22;27858;51.414;0.018;2024-03-23T04:23:50;5.00;99.90
42187;DHT22;27858;51.414;0.018;2024-03-23T04:26:16;5.00;99.90
42187;DHT22;27858;51.414;0.018;2024-03-23T04:28:42;5.00;99.90
42187;DHT22;27858;51.414;0.018;2024-03-23T04:31:09;5.00;99.90
42187;DHT22;27858;51.414;0.018;2024-03-23T04:33:35;5.00;99.90
42187;DHT22;27858;51.414;0.018;2024-03-23T04:36:02;5.00;99.90
42187;DHT22;27858;51.414;0.018;2024-03-23T04:38:28;5.00;99.90
42187;DHT22;27858;51.414;0.018;2024-03-23T04:40:58;4.90;99.90
42187;DHT22;27858;51.414;0.018;2024-03-23T04:43:25;4.90;99.90
42187;DHT22;27858;51.414;0.018;2024-03-23T04:45:51;5.00;99.90
42187;DHT22;27858;51.414;0.018;2024-03-23T04:48:19;5.00;99.90
42187;DHT22;27858;51.414;0.018;2024-03-23T04:50:45;5.00;99.90
42187;DHT22;27858;51.414;0.018;2024-03-23T04:53:10;5.00;99.90
42187;DHT22;27858;51.414;0.018;2024-03-23T04:55:36;5.00;99.90
42187;DHT22;27858;51.414;0.018;2024-03-23T04:58:03;5.00;99.90
42187;DHT22;27858;51.414;0.018;2024-03-23T05:00:30;5.00;99.90
42187;DHT22;27858;51.414;0.018;2024-03-23T05:02:55;5.00;99.90
42187;DHT22;27858;51.414;0.018;2024-03-23T05:05:21;4.90;99.90
42187;DHT22;27858;51.414;0.018;2024-03-23T05:07:47;4.90;99.90
42187;DHT22;27858;51.414;0.018;2024-03-23T05:10:13;5.00;99.90
42187;DHT22;27858;51.414;0.018;2024-03-23T05:12:39;4.90;99.90
42187;DHT22;27858;51.414;0.018;2024-03-23T05:15:06;4.90;99.90
42187;DHT22;27858;51.414;0.018;2024-03-23T05:17:33;4.90;99.90
42187;DHT22;27858;51.414;0.018;2024-03-23T05:19:59;4.90;99.90
42187;DHT22;27858;51.414;0.018;2024-03-23T05:22:26;4.90;99.90
42187;DHT22;27858;51.414;0.018;2024-03-23T05:24:53;4.90;99.90
42187;DHT22;27858;51.414;0.018;2024-03-23T05:27:19;4.80;99.90
42187;DHT22;27858;51.414;0.018;2024-03-23T05:29:45;4.80;99.90
42187;DHT22;27858;51.414;0.018;2024-03-23T05:32:10;4.80;99.90
42187;DHT22;27858;51.414;0.018;2024-03-23T05:34:36;4.80;99.90
42187;DHT22;27858;51.414;0.018;2024-03-23T05:37:02;4.80;99.90
42187;DHT22;27858;51.414;0.018;2024-03-23T05:39:28;4.80;99.90
42187;DHT22;27858;51.414;0.018;2024-03-23T05:41:54;4.70;99.90
42187;DHT22;27858;51.414;0.018;2024-03-23T05:44:20;4.70;99.90
42187;DHT22;27858;51.414;0.018;2024-03-23T05:46:45;4.70;99.90
42187;DHT22;27858;51.414;0.018;2024-03-23T05:49:15;4.70;99.90
42187;DHT22;27858;51.414;0.018;2024-03-23T05:51:41;4.60;99.90
42187;DHT22;27858;51.414;0.018;2024-03-23T05:54:07;4.60;99.90
42187;DHT22;27858;51.414;0.018;2024-03-23T05:56:34;4.60;99.90
42187;DHT22;27858;51.414;0.018;2024-03-23T05:59:00;4.60;99.90
42187;DHT22;27858;51.414;0.018;2024-03-23T06:01:25;4.60;99.90
42187;DHT22;27858;51.414;0.018;2024-03-23T06:03:54;4.60;99.90
42187;DHT22;27858;51.414;0.018;2024-03-23T06:06:20;4.60;99.90
42187;DHT22;27858;51.414;0.018;2024-03-23T06:08:46;4.60;99.90
42187;DHT22;27858;51.414;0.018;2024-03-23T06:11:13;4.60;99.90
42187;DHT22;27858;51.414;0.018;2024-03-23T06:13:39;4.60;99.90
42187;DHT22;27858;51.414;0.018;2024-03-23T06:16:05;4.60;99.90
42187;DHT22;27858;51.414;0.018;2024-03-23T06:18:31;4.60;99.90
42187;DHT22;27858;51.414;0.018;2024-03-23T06:20:57;4.60;99.90
42187;DHT22;27858;51.414;0.018;2024-03-23T06:23:23;4.70;99.90
42187;DHT22;27858;51.414;0.018;2024-03-23T06:25:49;4.70;99.90
42187;DHT22;27858;51.414;0.018;2024-03-23T06:28:15;4.70;99.90
42187;DHT22;27858;51.414;0.018;2024-03-23T06:30:41;4.80;99.90
42187;DHT22;27858;51.414;0.018;2024-03-23T06:33:07;4.70;99.90
42187;DHT22;27858;51.414;0.018;2024-03-23T06:35:33;4.80;99.90
42187;DHT22;27858;51.414;0.018;2024-03-23T06:37:58;4.80;99.90
42187;DHT22;27858;51.414;0.018;2024-03-23T06:40:24;4.80;99.90
42187;DHT22;27858;51.414;0.018;2024-03-23T06:42:50;4.80;99.90
42187;DHT22;27858;51.414;0.018;2024-03-23T06:45:17;4.90;99.90
42187;DHT22;27858;51.414;0.018;2024-03-23T06:47:44;4.90;99.90
42187;DHT22;27858;51.414;0.018;2024-03-23T06:50:10;4.90;99.90
42187;DHT22;27858;51.414;0.018;2024-03-23T06:52:37;4.90;99.90
42187;DHT22;27858;51.414;0.018;2024-03-23T06:55:03;4.90;99.90
42187;DHT22;27858;51.414;0.018;2024-03-23T06:57:30;5.00;99.90
42187;DHT22;27858;51.414;0.018;2024-03-23T06:59:56;5.00;99.90
42187;DHT22;27858;51.414;0.018;2024-03-23T07:02:22;5.10;99.90
42187;DHT22;27858;51.414;0.018;2024-03-23T07:04:48;5.10;99.90
42187;DHT22;27858;51.414;0.018;2024-03-23T07:07:13;5.10;99.90
42187;DHT22;27858;51.414;0.018;2024-03-23T07:09:39;5.10;99.90
42187;DHT22;27858;51.414;0.018;2024-03-23T07:12:05;5.20;99.90
42187;DHT22;27858;51.414;0.018;2024-03-23T07:14:31;5.20;99.90
42187;DHT22;27858;51.414;0.018;2024-03-23T07:16:57;5.30;99.90
42187;DHT22;27858;51.414;0.018;2024-03-23T07:19:23;5.30;99.90
42187;DHT22;27858;51.414;0.018;2024-03-23T07:21:50;5.40;99.90
42187;DHT22;27858;51.414;0.018;2024-03-23T07:24:17;5.40;99.90
42187;DHT22;27858;51.414;0.018;2024-03-23T07:26:42;5.50;99.90
42187;DHT22;27858;51.414;0.018;2024-03-23T07:29:09;5.50;99.90
42187;DHT22;27858;51.414;0.018;2024-03-23T07:31:35;5.50;99.90
42187;DHT22;27858;51.414;0.018;2024-03-23T07:34:01;5.70;99.90
42187;DHT22;27858;51.414;0.018;2024-03-23T07:36:27;5.80;99.90
42187;DHT22;27858;51.414;0.018;2024-03-23T07:38:52;5.90;99.90
42187;DHT22;27858;51.414;0.018;2024-03-23T07:41:20;6.10;99.90
42187;DHT22;27858;51.414;0.018;2024-03-23T07:43:47;6.00;99.90
42187;DHT22;27858;51.414;0.018;2024-03-23T07:46:14;6.00;99.90
42187;DHT22;27858;51.414;0.018;2024-03-23T07:48:40;6.00;99.90
42187;DHT22;27858;51.414;0.018;2024-03-23T07:51:09;6.00;99.90
42187;DHT22;27858;51.414;0.018;2024-03-23T07:53:36;6.10;99.90
42187;DHT22;27858;51.414;0.018;2024-03-23T07:56:07;6.10;99.90
42187;DHT22;27858;51.414;0.018;2024-03-23T07:58:34;6.20;99.90
42187;DHT22;27858;51.414;0.018;2024-03-23T08:01:10;6.20;99.90
42187;DHT22;27858;51.414;0.018;2024-03-23T08:03:37;6.20;99.90
42187;DHT22;27858;51.414;0.018;2024-03-23T08:06:19;6.30;99.90
42187;DHT22;27858;51.414;0.018;2024-03-23T08:08:47;6.40;99.90
42187;DHT22;27858;51.414;0.018;2024-03-23T08:11:13;6.40;99.90
42187;DHT22;27858;51.414;0.018;2024-03-23T08:13:41;6.50;99.90
42187;DHT22;27858;51.414;0.018;2024-03-23T08:16:07;6.50;99.90
42187;DHT22;27858;51.414;0.018;2024-03-23T08:18:34;6.60;99.90
42187;DHT22;27858;51.414;0.018;2024-03-23T08:21:02;6.70;99.90
42187;DHT22;27858;51.414;0.018;2024-03-23T08:23:29;6.80;99.90
42187;DHT22;27858;51.414;0.018;2024-03-23T08:25:59;6.80;99.90
42187;DHT22;27858;51.414;0.018;2024-03-23T08:28:26;6.90;99.90
42187;DHT22;27858;51.414;0.018;2024-03-23T08:30:53;6.90;99.90
42187;DHT22;27858;51.414;0.018;2024-03-23T08:33:19;7.10;99.90
42187;DHT22;27858;51.414;0.018;2024-03-23T08:35:56;7.10;99.90
42187;DHT22;27858;51.414;0.018;2024-03-23T08:38:25;7.20;99.90
42187;DHT22;27858;51.414;0.018;2024-03-23T08:40:59;7.30;99.90
42187;DHT22;27858;51.414;0.018;2024-03-23T08:43:25;7.30;99.90
42187;DHT22;27858;51.414;0.018;2024-03-23T08:45:52;7.40;99.90
42187;DHT22;27858;51.414;0.018;2024-03-23T08:48:19;7.40;99.90
42187;DHT22;27858;51.414;0.018;2024-03-23T08:50:47;7.50;99.90
42187;DHT22;27858;51.414;0.018;2024-03-23T08:53:12;7.50;99.90
42187;DHT22;27858;51.414;0.018;2024-03-23T08:55:38;7.60;99.90
42187;DHT22;27858;51.414;0.018;2024-03-23T08:58:05;7.70;99.90
42187;DHT22;27858;51.414;0.018;2024-03-23T09:00:34;7.70;99.90
42187;DHT22;27858;51.414;0.018;2024-03-23T09:03:00;7.80;99.90
42187;DHT22;27858;51.414;0.018;2024-03-23T09:05:27;7.90;99.90
42187;DHT22;27858;51.414;0.018;2024-03-23T09:07:54;7.90;99.90
42187;DHT22;27858;51.414;0.018;2024-03-23T09:10:20;8.00;99.90
42187;DHT22;27858;51.414;0.018;2024-03-23T09:12:46;8.00;99.90
42187;DHT22;27858;51.414;0.018;2024-03-23T09:15:12;8.10;99.90
42187;DHT22;27858;51.414;0.018;2024-03-23T09:17:37;8.10;99.90
42187;DHT22;27858;51.414;0.018;2024-03-23T09:20:04;8.30;99.90
42187;DHT22;27858;51.414;0.018;2024-03-23T09:22:30;8.20;99.90
42187;DHT22;27858;51.414;0.018;2024-03-23T09:24:56;8.20;99.90
42187;DHT22;27858;51.414;0.018;2024-03-23T09:27:21;8.30;99.90
42187;DHT22;27858;51.414;0.018;2024-03-23T09:29:47;8.40;99.90
42187;DHT22;27858;51.414;0.018;2024-03-23T09:32:13;8.40;99.90
42187;DHT22;27858;51.414;0.018;2024-03-23T09:34:39;8.50;99.90
42187;DHT22;27858;51.414;0.018;2024-03-23T09:37:04;8.50;99.90
42187;DHT22;27858;51.414;0.018;2024-03-23T09:39:30;8.50;99.90
42187;DHT22;27858;51.414;0.018;2024-03-23T09:41:58;8.50;99.90
42187;DHT22;27858;51.414;0.018;2024-03-23T09:44:24;8.60;99.90
42187;DHT22;27858;51.414;0.018;2024-03-23T09:46:52;8.80;99.90
42187;DHT22;27858;51.414;0.018;2024-03-23T09:49:18;8.70;99.90
42187;DHT22;27858;51.414;0.018;2024-03-23T09:51:44;8.70;99.90
42187;DHT22;27858;51.414;0.018;2024-03-23T09:54:10;8.70;99.90
42187;DHT22;27858;51.414;0.018;2024-03-23T09:56:36;8.80;99.90
42187;DHT22;27858;51.414;0.018;2024-03-23T09:59:03;8.80;99.90
42187;DHT22;27858;51.414;0.018;2024-03-23T10:01:32;8.70;99.90
42187;DHT22;27858;51.414;0.018;2024-03-23T10:03:58;8.90;99.90
42187;DHT22;27858;51.414;0.018;2024-03-23T10:06:24;8.90;99.90
42187;DHT22;27858;51.414;0.018;2024-03-23T10:08:53;9.00;99.90
42187;DHT22;27858;51.414;0.018;2024-03-23T10:11:20;9.10;99.90
42187;DHT22;27858;51.414;0.018;2024-03-23T10:13:47;9.10;99.90
42187;DHT22;27858;51.414;0.018;2024-03-23T10:16:24;9.00;99.90
42187;DHT22;27858;51.414;0.018;2024-03-23T10:18:50;8.90;99.90
42187;DHT22;27858;51.414;0.018;2024-03-23T10:21:16;8.90;99.90
42187;DHT22;27858;51.414;0.018;2024-03-23T10:23:43;9.00;99.90
42187;DHT22;27858;51.414;0.018;2024-03-23T10:26:22;9.20;99.90
42187;DHT22;27858;51.414;0.018;2024-03-23T10:28:55;9.40;99.90
42187;DHT22;27858;51.414;0.018;2024-03-23T10:31:27;9.40;99.90
42187;DHT22;27858;51.414;0.018;2024-03-23T10:33:53;9.50;99.90
42187;DHT22;27858;51.414;0.018;2024-03-23T10:36:21;9.50;99.90
42187;DHT22;27858;51.414;0.018;2024-03-23T10:38:48;9.60;99.90
42187;DHT22;27858;51.414;0.018;2024-03-23T10:41:15;9.80;99.90
42187;DHT22;27858;51.414;0.018;2024-03-23T10:43:43;9.70;99.90
42187;DHT22;27858;51.414;0.018;2024-03-23T10:46:10;9.80;99.90
42187;DHT22;27858;51.414;0.018;2024-03-23T10:48:36;9.80;99.90
42187;DHT22;27858;51.414;0.018;2024-03-23T10:51:02;9.80;99.90
42187;DHT22;27858;51.414;0.018;2024-03-23T10:53:28;9.80;99.90
42187;DHT22;27858;51.414;0.018;2024-03-23T10:55:55;9.90;99.90
42187;DHT22;27858;51.414;0.018;2024-03-23T10:58:28;10.00;99.90
42187;DHT22;27858;51.414;0.018;2024-03-23T11:00:54;10.10;99.90
42187;DHT22;27858;51.414;0.018;2024-03-23T11:03:37;10.20;99.90
42187;DHT22;27858;51.414;0.018;2024-03-23T11:06:07;10.20;99.90
42187;DHT22;27858;51.414;0.018;2024-03-23T11:08:37;10.20;99.90
42187;DHT22;27858;51.414;0.018;2024-03-23T11:13:41;10.30;99.90
42187;DHT22;27858;51.414;0.018;2024-03-23T11:16:24;10.30;99.90
42187;DHT22;27858;51.414;0.018;2024-03-23T11:18:51;10.50;99.90
42187;DHT22;27858;51.414;0.018;2024-03-23T11:21:54;10.40;99.90
42187;DHT22;27858;51.414;0.018;2024-03-23T11:24:21;10.60;99.90
42187;DHT22;27858;51.414;0.018;2024-03-23T11:26:48;10.50;99.90
42187;DHT22;27858;51.414;0.018;2024-03-23T11:29:15;10.40;99.90
42187;DHT22;27858;51.414;0.018;2024-03-23T11:31:51;10.50;99.90
42187;DHT22;27858;51.414;0.018;2024-03-23T11:34:18;10.40;99.90
42187;DHT22;27858;51.414;0.018;2024-03-23T11:36:44;10.40;99.90
42187;DHT22;27858;51.414;0.018;2024-03-23T11:39:17;10.50;99.90
42187;DHT22;27858;51.414;0.018;2024-03-23T11:41:48;10.50;99.90
42187;DHT22;27858;51.414;0.018;2024-03-23T11:44:20;10.70;99.90
42187;DHT22;27858;51.414;0.018;2024-03-23T11:46:46;10.80;99.90
42187;DHT22;27858;51.414;0.018;2024-03-23T11:49:26;10.80;99.90
42187;DHT22;27858;51.414;0.018;2024-03-23T11:51:53;10.80;99.90
42187;DHT22;27858;51.414;0.018;2024-03-23T11:54:26;10.70;99.90
42187;DHT22;27858;51.414;0.018;2024-03-23T11:57:01;10.70;99.90
42187;DHT22;27858;51.414;0.018;2024-03-23T11:59:36;10.70;99.90
42187;DHT22;27858;51.414;0.018;2024-03-23T12:02:13;10.70;99.90
42187;DHT22;27858;51.414;0.018;2024-03-23T12:04:41;10.60;99.90
42187;DHT22;27858;51.414;0.018;2024-03-23T12:07:15;10.60;99.90
42187;DHT22;27858;51.414;0.018;2024-03-23T12:09:41;10.40;99.70
42187;DHT22;27858;51.414;0.018;2024-03-23T12:12:14;10.50;98.70
42187;DHT22;27858;51.414;0.018;2024-03-23T12:14:44;10.60;99.90
42187;DHT22;27858;51.414;0.018;2024-03-23T12:17:12;10.80;99.90
42187;DHT22;27858;51.414;0.018;2024-03-23T12:19:38;11.00;95.10
42187;DHT22;27858;51.414;0.018;2024-03-23T12:22:05;11.20;95.60
42187;DHT22;27858;51.414;0.018;2024-03-23T12:24:31;11.20;83.40
42187;DHT22;27858;51.414;0.018;2024-03-23T12:27:03;11.40;88.70
42187;DHT22;27858;51.414;0.018;2024-03-23T12:29:34;11.40;83.50
42187;DHT22;27858;51.414;0.018;2024-03-23T12:32:01;11.50;81.00
42187;DHT22;27858;51.414;0.018;2024-03-23T12:34:28;11.50;76.90
42187;DHT22;27858;51.414;0.018;2024-03-23T12:36:54;11.40;69.50
42187;DHT22;27858;51.414;0.018;2024-03-23T12:39:20;11.50;75.60
42187;DHT22;27858;51.414;0.018;2024-03-23T12:41:51;11.80;73.30
42187;DHT22;27858;51.414;0.018;2024-03-23T12:44:18;11.80;87.00
42187;DHT22;27858;51.414;0.018;2024-03-23T12:46:44;11.90;94.50
42187;DHT22;27858;51.414;0.018;2024-03-23T12:49:10;12.00;88.10
42187;DHT22;27858;51.414;0.018;2024-03-23T12:51:36;12.10;91.20
42187;DHT22;27858;51.414;0.018;2024-03-23T12:54:03;12.10;84.50
42187;DHT22;27858;51.414;0.018;2024-03-23T12:56:29;12.20;91.20
42187;DHT22;27858;51.414;0.018;2024-03-23T12:58:58;12.00;79.90
42187;DHT22;27858;51.414;0.018;2024-03-23T13:01:25;12.00;74.10
42187;DHT22;27858;51.414;0.018;2024-03-23T13:03:51;11.70;61.20
42187;DHT22;27858;51.414;0.018;2024-03-23T13:06:18;11.70;50.20
42187;DHT22;27858;51.414;0.018;2024-03-23T13:08:45;11.80;56.90
42187;DHT22;27858;51.414;0.018;2024-03-23T13:11:12;11.70;69.50
42187;DHT22;27858;51.414;0.018;2024-03-23T13:13:38;11.60;71.30
42187;DHT22;27858;51.414;0.018;2024-03-23T13:16:05;11.50;71.40
42187;DHT22;27858;51.414;0.018;2024-03-23T13:18:32;11.40;79.70
42187;DHT22;27858;51.414;0.018;2024-03-23T13:20:58;11.20;71.00
42187;DHT22;27858;51.414;0.018;2024-03-23T13:23:24;11.10;75.70
42187;DHT22;27858;51.414;0.018;2024-03-23T13:25:51;11.10;94.70
42187;DHT22;27858;51.414;0.018;2024-03-23T13:28:21;11.00;99.90
42187;DHT22;27858;51.414;0.018;2024-03-23T13:30:57;10.90;99.90
42187;DHT22;27858;51.414;0.018;2024-03-23T13:33:29;10.90;99.90
42187;DHT22;27858;51.414;0.018;2024-03-23T13:35:56;10.80;99.90
42187;DHT22;27858;51.414;0.018;2024-03-23T13:38:22;10.70;99.90
42187;DHT22;27858;51.414;0.018;2024-03-23T13:40:53;10.70;99.90
42187;DHT22;27858;51.414;0.018;2024-03-23T13:43:20;10.80;96.40
42187;DHT22;27858;51.414;0.018;2024-03-23T13:45:53;10.80;99.90
42187;DHT22;27858;51.414;0.018;2024-03-23T13:48:24;10.40;99.90
42187;DHT22;27858;51.414;0.018;2024-03-23T13:51:02;10.10;99.90
42187;DHT22;27858;51.414;0.018;2024-03-23T13:53:28;9.60;99.90
42187;DHT22;27858;51.414;0.018;2024-03-23T13:55:54;9.30;99.90
42187;DHT22;27858;51.414;0.018;2024-03-23T13:58:21;8.90;99.90
42187;DHT22;27858;51.414;0.018;2024-03-23T14:00:47;8.40;99.90
42187;DHT22;27858;51.414;0.018;2024-03-23T14:03:14;8.10;99.90
42187;DHT22;27858;51.414;0.018;2024-03-23T14:05:40;8.00;99.90
42187;DHT22;27858;51.414;0.018;2024-03-23T14:08:10;8.00;99.90
42187;DHT22;27858;51.414;0.018;2024-03-23T14:10:40;8.00;99.90
42187;DHT22;27858;51.414;0.018;2024-03-23T14:13:07;7.90;99.90
42187;DHT22;27858;51.414;0.018;2024-03-23T14:15:33;8.00;99.90
42187;DHT22;27858;51.414;0.018;2024-03-23T14:17:59;8.00;99.90
42187;DHT22;27858;51.414;0.018;2024-03-23T14:20:25;7.90;99.90
42187;DHT22;27858;51.414;0.018;2024-03-23T14:22:52;8.00;99.90
42187;DHT22;27858;51.414;0.018;2024-03-23T14:25:18;8.20;99.90
42187;DHT22;27858;51.414;0.018;2024-03-23T14:27:45;8.40;99.90
42187;DHT22;27858;51.414;0.018;2024-03-23T14:30:11;8.90;99.90
42187;DHT22;27858;51.414;0.018;2024-03-23T14:32:38;9.20;99.90
42187;DHT22;27858;51.414;0.018;2024-03-23T14:35:05;9.20;99.90
42187;DHT22;27858;51.414;0.018;2024-03-23T14:37:31;9.40;99.90
42187;DHT22;27858;51.414;0.018;2024-03-23T14:39:57;9.80;99.90
42187;DHT22;27858;51.414;0.018;2024-03-23T14:42:24;10.20;99.90
42187;DHT22;27858;51.414;0.018;2024-03-23T14:44:50;10.10;99.90
42187;DHT22;27858;51.414;0.018;2024-03-23T14:47:17;10.30;99.90
42187;DHT22;27858;51.414;0.018;2024-03-23T14:49:44;10.60;99.90
42187;DHT22;27858;51.414;0.018;2024-03-23T14:52:13;10.60;99.90
42187;DHT22;27858;51.414;0.018;2024-03-23T14:54:39;10.90;99.90
42187;DHT22;27858;51.414;0.018;2024-03-23T14:57:06;10.90;99.90
42187;DHT22;27858;51.414;0.018;2024-03-23T14:59:35;11.20;99.90
42187;DHT22;27858;51.414;0.018;2024-03-23T15:02:01;11.00;99.90
42187;DHT22;27858;51.414;0.018;2024-03-23T15:04:27;10.80;99.90
42187;DHT22;27858;51.414;0.018;2024-03-23T15:06:52;10.60;99.90
42187;DHT22;27858;51.414;0.018;2024-03-23T15:09:18;10.50;99.90
42187;DHT22;27858;51.414;0.018;2024-03-23T15:11:44;10.30;99.90
42187;DHT22;27858;51.414;0.018;2024-03-23T15:14:10;10.40;99.90
42187;DHT22;27858;51.414;0.018;2024-03-23T15:16:37;10.70;99.90
42187;DHT22;27858;51.414;0.018;2024-03-23T15:19:02;10.90;99.90
42187;DHT22;27858;51.414;0.018;2024-03-23T15:21:31;10.90;99.90
42187;DHT22;27858;51.414;0.018;2024-03-23T15:23:57;11.30;99.90
42187;DHT22;27858;51.414;0.018;2024-03-23T15:26:23;11.20;99.90
42187;DHT22;27858;51.414;0.018;2024-03-23T15:28:49;11.10;99.90
42187;DHT22;27858;51.414;0.018;2024-03-23T15:31:24;11.30;99.90
42187;DHT22;27858;51.414;0.018;2024-03-23T15:33:51;11.20;99.90
42187;DHT22;27858;51.414;0.018;2024-03-23T15:36:17;11.30;99.90
42187;DHT22;27858;51.414;0.018;2024-03-23T15:38:44;11.50;99.90
42187;DHT22;27858;51.414;0.018;2024-03-23T15:41:10;11.90;99.90
42187;DHT22;27858;51.414;0.018;2024-03-23T15:43:36;11.90;99.90
42187;DHT22;27858;51.414;0.018;2024-03-23T15:46:04;12.00;99.90
42187;DHT22;27858;51.414;0.018;2024-03-23T15:48:36;11.60;99.90
42187;DHT22;27858;51.414;0.018;2024-03-23T15:51:03;11.20;99.90
42187;DHT22;27858;51.414;0.018;2024-03-23T15:53:30;11.00;99.90
42187;DHT22;27858;51.414;0.018;2024-03-23T15:55:58;10.90;99.90
42187;DHT22;27858;51.414;0.018;2024-03-23T15:58:24;10.80;99.90
42187;DHT22;27858;51.414;0.018;2024-03-23T16:01:00;10.50;99.90
42187;DHT22;27858;51.414;0.018;2024-03-23T16:03:27;9.50;99.90
42187;DHT22;27858;51.414;0.018;2024-03-23T16:05:54;8.70;99.90
42187;DHT22;27858;51.414;0.018;2024-03-23T16:08:20;8.40;99.90
42187;DHT22;27858;51.414;0.018;2024-03-23T16:10:47;8.10;99.90
42187;DHT22;27858;51.414;0.018;2024-03-23T16:13:13;8.00;99.90
42187;DHT22;27858;51.414;0.018;2024-03-23T16:15:40;8.00;99.90
42187;DHT22;27858;51.414;0.018;2024-03-23T16:18:06;8.60;99.90
42187;DHT22;27858;51.414;0.018;2024-03-23T16:20:32;9.20;99.90
42187;DHT22;27858;51.414;0.018;2024-03-23T16:23:01;9.90;99.90
42187;DHT22;27858;51.414;0.018;2024-03-23T16:25:27;10.40;99.90
42187;DHT22;27858;51.414;0.018;2024-03-23T16:27:53;10.50;99.90
42187;DHT22;27858;51.414;0.018;2024-03-23T16:30:20;11.00;99.90
42187;DHT22;27858;51.414;0.018;2024-03-23T16:32:46;11.50;99.90
42187;DHT22;27858;51.414;0.018;2024-03-23T16:35:13;11.50;99.90